createdAt,value
2018-09-26T00:00:39.357Z,2.90
2018-09-26T00:03:27.062Z,1.90
2018-09-26T00:05:54.037Z,2.20
2018-09-26T00:08:21.394Z,2.03
2018-09-26T00:10:48.646Z,2.33
2018-09-26T00:13:16.758Z,2.13
2018-09-26T00:15:43.837Z,2.00
2018-09-26T00:18:11.128Z,1.80
2018-09-26T00:20:38.147Z,2.30
2018-09-26T00:23:05.305Z,2.00
2018-09-26T00:25:32.548Z,1.60
2018-09-26T00:27:59.522Z,2.37
2018-09-26T00:30:26.514Z,2.30
2018-09-26T00:32:53.591Z,2.00
2018-09-26T00:35:20.601Z,2.47
2018-09-26T00:37:47.803Z,2.30
2018-09-26T00:40:15.244Z,2.60
2018-09-26T00:42:42.438Z,2.03
2018-09-26T00:45:09.534Z,1.73
2018-09-26T00:47:36.653Z,2.30
2018-09-26T00:50:03.749Z,1.83
2018-09-26T00:52:30.884Z,1.57
2018-09-26T00:54:58.377Z,1.90
2018-09-26T00:57:25.578Z,1.90
2018-09-26T00:59:52.712Z,1.73
2018-09-26T01:02:19.828Z,2.00
2018-09-26T01:04:46.952Z,1.90
2018-09-26T01:07:14.037Z,2.27
2018-09-26T01:09:41.241Z,1.83
2018-09-26T01:12:08.472Z,2.07
2018-09-26T01:14:35.533Z,2.63
2018-09-26T01:17:02.646Z,2.53
2018-09-26T01:19:29.944Z,2.03
2018-09-26T01:21:57.003Z,2.27
2018-09-26T01:24:24.465Z,2.00
2018-09-26T01:26:51.616Z,2.17
2018-09-26T01:29:18.781Z,2.47
2018-09-26T01:31:45.977Z,1.80
2018-09-26T01:34:13.054Z,2.00
2018-09-26T01:36:40.085Z,2.13
2018-09-26T01:39:07.428Z,2.30
2018-09-26T01:41:34.578Z,2.37
2018-09-26T01:44:01.657Z,1.97
2018-09-26T01:46:28.769Z,2.07
2018-09-26T01:48:55.852Z,3.23
2018-09-26T01:51:22.900Z,2.00
2018-09-26T01:53:50.128Z,2.23
2018-09-26T01:56:17.257Z,1.60
2018-09-26T01:58:44.393Z,1.93
2018-09-26T02:01:12.286Z,2.60
2018-09-26T02:03:39.357Z,2.10
2018-09-26T02:06:06.550Z,2.00
2018-09-26T02:08:34.612Z,2.20
2018-09-26T02:11:01.739Z,2.10
2018-09-26T02:13:28.790Z,2.20
2018-09-26T02:15:56.249Z,1.90
2018-09-26T02:18:23.350Z,1.87
2018-09-26T02:20:50.507Z,2.53
2018-09-26T02:23:17.901Z,2.10
2018-09-26T02:25:45.050Z,2.10
2018-09-26T02:28:12.091Z,2.70
2018-09-26T02:30:39.251Z,2.57
2018-09-26T02:33:06.422Z,2.80
2018-09-26T02:35:33.539Z,2.10
2018-09-26T02:38:00.921Z,2.33
2018-09-26T02:40:28.119Z,3.70
2018-09-26T02:42:55.230Z,2.13
2018-09-26T02:45:22.666Z,2.50
2018-09-26T02:47:49.798Z,2.20
2018-09-26T02:50:16.991Z,2.30
2018-09-26T02:52:44.803Z,2.03
2018-09-26T02:55:11.995Z,3.00
2018-09-26T02:57:39.150Z,2.10
2018-09-26T03:00:06.221Z,2.43
2018-09-26T03:02:33.338Z,2.10
2018-09-26T03:05:00.508Z,2.00
2018-09-26T03:07:27.734Z,2.37
2018-09-26T03:09:54.796Z,2.10
2018-09-26T03:12:21.875Z,2.43
2018-09-26T03:14:49.119Z,2.70
2018-09-26T03:17:16.341Z,3.20
2018-09-26T03:19:43.483Z,3.20
2018-09-26T03:22:10.946Z,2.97
2018-09-26T03:24:38.058Z,2.53
2018-09-26T03:27:05.210Z,2.70
2018-09-26T03:29:32.654Z,2.83
2018-09-26T03:31:59.744Z,3.30
2018-09-26T03:34:26.846Z,3.00
2018-09-26T03:36:54.254Z,2.87
2018-09-26T03:39:21.391Z,2.77
2018-09-26T03:41:48.429Z,3.00
2018-09-26T03:44:15.561Z,2.90
2018-09-26T03:46:42.738Z,3.00
2018-09-26T03:49:09.869Z,3.00
2018-09-26T03:51:37.101Z,2.73
2018-09-26T03:54:04.239Z,3.20
2018-09-26T03:56:31.358Z,3.80
2018-09-26T03:58:58.866Z,4.00
2018-09-26T04:01:25.949Z,4.13
2018-09-26T04:03:53.092Z,5.80
2018-09-26T04:06:20.485Z,5.70
2018-09-26T04:08:47.666Z,6.10
2018-09-26T04:11:14.817Z,7.47
2018-09-26T04:13:42.054Z,6.13
2018-09-26T04:16:09.143Z,6.33
2018-09-26T04:18:36.222Z,6.60
2018-09-26T04:21:03.649Z,6.80
2018-09-26T04:23:30.793Z,6.40
2018-09-26T04:25:57.970Z,6.37
2018-09-26T04:28:25.589Z,6.00
2018-09-26T04:30:52.701Z,5.87
2018-09-26T04:33:20.055Z,5.57
2018-09-26T04:35:47.284Z,6.10
2018-09-26T04:38:14.372Z,6.60
2018-09-26T04:40:41.450Z,6.10
2018-09-26T04:43:08.634Z,6.30
2018-09-26T04:45:36.191Z,4.90
2018-09-26T04:48:03.301Z,5.70
2018-09-26T04:50:30.697Z,6.10
2018-09-26T04:52:57.837Z,5.10
2018-09-26T04:55:24.883Z,5.27
2018-09-26T04:57:52.341Z,9.07
2018-09-26T05:00:19.385Z,5.00
2018-09-26T05:02:46.471Z,5.33
2018-09-26T05:05:14.473Z,5.27
2018-09-26T05:07:41.587Z,4.80
2018-09-26T05:10:08.685Z,4.60
2018-09-26T05:12:36.021Z,5.07
2018-09-26T05:15:03.235Z,7.33
2018-09-26T05:17:30.346Z,4.43
2018-09-26T05:19:57.610Z,4.60
2018-09-26T05:22:24.872Z,4.80
2018-09-26T05:24:51.953Z,4.60
2018-09-26T05:27:19.378Z,4.00
2018-09-26T05:29:46.420Z,4.60
2018-09-26T05:32:13.484Z,4.43
2018-09-26T05:34:40.580Z,4.03
2018-09-26T05:37:07.877Z,4.33
2018-09-26T05:39:34.988Z,4.37
2018-09-26T05:42:02.599Z,4.30
2018-09-26T05:44:29.674Z,4.87
2018-09-26T05:46:56.711Z,4.50
2018-09-26T05:49:23.730Z,4.20
2018-09-26T05:51:50.840Z,4.30
2018-09-26T05:54:17.958Z,3.97
2018-09-26T05:56:45.098Z,4.00
2018-09-26T05:59:12.267Z,4.17
2018-09-26T06:01:39.364Z,4.10
2018-09-26T06:04:06.512Z,3.93
2018-09-26T06:06:33.597Z,4.40
2018-09-26T06:09:00.702Z,4.53
2018-09-26T06:11:27.876Z,3.93
2018-09-26T06:13:55.009Z,3.87
2018-09-26T06:16:22.067Z,3.30
2018-09-26T06:18:49.415Z,3.67
2018-09-26T06:21:16.585Z,3.80
2018-09-26T06:23:43.662Z,3.70
2018-09-26T06:26:11.089Z,3.80
2018-09-26T06:28:38.294Z,3.63
2018-09-26T06:31:05.415Z,3.93
2018-09-26T06:33:32.532Z,4.10
2018-09-26T06:35:59.696Z,4.50
2018-09-26T06:38:26.793Z,3.80
2018-09-26T06:40:54.212Z,3.77
2018-09-26T06:43:21.304Z,4.70
2018-09-26T06:45:48.614Z,4.00
2018-09-26T06:48:16.241Z,4.47
2018-09-26T06:50:43.309Z,3.80
2018-09-26T06:53:10.474Z,4.10
2018-09-26T06:55:37.441Z,4.40
2018-09-26T06:58:04.428Z,4.57
2018-09-26T07:00:31.392Z,4.07
2018-09-26T07:02:58.701Z,4.00
2018-09-26T07:05:25.707Z,4.50
2018-09-26T07:07:52.729Z,5.17
2018-09-26T07:10:19.666Z,4.80
2018-09-26T07:12:46.646Z,4.70
2018-09-26T07:15:13.674Z,4.00
2018-09-26T07:17:41.053Z,4.20
2018-09-26T07:20:08.023Z,4.47
2018-09-26T07:22:35.081Z,4.20
2018-09-26T07:25:02.116Z,4.23
2018-09-26T07:27:29.212Z,4.07
2018-09-26T07:29:56.290Z,4.53
2018-09-26T07:32:23.375Z,4.40
2018-09-26T07:34:50.454Z,4.80
2018-09-26T07:37:17.534Z,3.83
2018-09-26T07:39:44.635Z,4.20
2018-09-26T07:42:11.684Z,4.23
2018-09-26T07:44:40.797Z,4.43
2018-09-26T07:47:07.907Z,4.43
2018-09-26T07:49:35.010Z,4.40
2018-09-26T07:52:02.132Z,3.47
2018-09-26T07:54:29.208Z,3.43
2018-09-26T07:56:56.269Z,3.23
2018-09-26T07:59:33.868Z,3.40
2018-09-26T08:02:02.013Z,3.27
2018-09-26T08:04:36.585Z,3.20
2018-09-26T08:07:03.628Z,2.73
2018-09-26T08:09:30.710Z,3.33
2018-09-26T08:11:57.801Z,3.10
2018-09-26T08:14:24.887Z,2.90
2018-09-26T08:16:54.053Z,3.13
2018-09-26T08:19:21.404Z,3.20
2018-09-26T08:21:48.444Z,3.77
2018-09-26T08:24:16.661Z,2.60
2018-09-26T08:26:43.778Z,2.80
2018-09-26T08:29:10.864Z,2.50
2018-09-26T08:31:38.004Z,3.03
2018-09-26T08:34:05.400Z,2.50
2018-09-26T08:36:32.489Z,2.70
2018-09-26T08:38:59.564Z,2.87
2018-09-26T08:41:26.722Z,2.50
2018-09-26T08:43:53.846Z,2.13
2018-09-26T08:46:20.957Z,3.27
2018-09-26T08:48:48.365Z,3.20
2018-09-26T08:51:15.432Z,2.70
2018-09-26T08:53:42.509Z,2.20
2018-09-26T08:56:09.993Z,2.90
2018-09-26T08:58:37.113Z,1.93
2018-09-26T09:01:08.881Z,3.00
2018-09-26T09:03:36.065Z,2.57
2018-09-26T09:06:03.195Z,2.67
2018-09-26T09:08:30.281Z,2.20
2018-09-26T09:10:57.390Z,2.40
2018-09-26T09:13:24.494Z,2.37
2018-09-26T09:15:51.687Z,2.23
2018-09-26T09:18:19.128Z,2.10
2018-09-26T09:20:46.196Z,1.80
2018-09-26T09:23:13.270Z,1.93
2018-09-26T09:25:40.346Z,1.80
2018-09-26T09:28:08.870Z,1.67
2018-09-26T09:30:36.123Z,1.90
2018-09-26T09:33:03.308Z,1.87
2018-09-26T09:35:30.471Z,2.00
2018-09-26T09:37:57.545Z,2.43
2018-09-26T09:40:24.627Z,2.30
2018-09-26T09:42:51.791Z,2.30
2018-09-26T09:45:18.764Z,1.90
2018-09-26T09:47:46.019Z,2.07
2018-09-26T09:50:13.141Z,2.27
2018-09-26T09:52:40.212Z,1.80
2018-09-26T09:55:07.638Z,1.87
2018-09-26T09:57:34.641Z,1.90
2018-09-26T10:00:01.711Z,2.00
2018-09-26T10:02:28.894Z,2.10
2018-09-26T10:04:55.956Z,2.60
2018-09-26T10:07:23.061Z,1.63
2018-09-26T10:09:50.302Z,1.50
2018-09-26T10:12:17.384Z,1.90
2018-09-26T10:14:44.781Z,2.20
2018-09-26T10:17:12.197Z,1.47
2018-09-26T10:19:39.329Z,1.50
2018-09-26T10:22:06.446Z,1.70
2018-09-26T10:24:33.596Z,1.70
2018-09-26T10:27:00.667Z,1.50
2018-09-26T10:29:27.744Z,1.63
2018-09-26T10:31:54.830Z,2.10
2018-09-26T10:34:22.049Z,1.90
2018-09-26T10:36:49.219Z,1.80
2018-09-26T10:39:16.688Z,1.43
2018-09-26T10:41:43.876Z,1.10
2018-09-26T10:44:11.167Z,1.60
2018-09-26T10:46:38.436Z,1.77
2018-09-26T10:49:05.593Z,1.50
2018-09-26T10:51:33.804Z,1.77
2018-09-26T10:54:00.947Z,1.80
2018-09-26T10:56:28.250Z,1.37
2018-09-26T10:58:55.305Z,1.33
2018-09-26T11:01:22.791Z,2.23
2018-09-26T11:03:49.906Z,1.30
2018-09-26T11:06:17.061Z,1.53
2018-09-26T11:08:44.229Z,1.33
2018-09-26T11:11:11.488Z,1.20
2018-09-26T11:13:38.701Z,1.47
2018-09-26T11:16:06.288Z,1.20
2018-09-26T11:18:33.514Z,3.50
2018-09-26T11:21:00.653Z,1.60
2018-09-26T11:23:27.823Z,1.33
2018-09-26T11:25:54.809Z,1.50
2018-09-26T11:28:21.900Z,1.73
2018-09-26T11:30:48.913Z,1.27
2018-09-26T11:33:15.949Z,1.43
2018-09-26T11:35:42.998Z,1.80
2018-09-26T11:38:10.210Z,2.13
2018-09-26T11:40:37.202Z,1.37
2018-09-26T11:43:04.259Z,1.90
2018-09-26T11:45:31.249Z,1.20
2018-09-26T11:47:58.294Z,1.40
2018-09-26T11:50:25.322Z,1.93
2018-09-26T11:52:52.739Z,1.60
2018-09-26T11:55:19.926Z,1.60
2018-09-26T11:57:46.951Z,1.70
2018-09-26T12:00:14.338Z,1.37
2018-09-26T12:02:41.454Z,1.60
2018-09-26T12:05:08.522Z,1.60
2018-09-26T12:07:35.652Z,1.97
2018-09-26T12:10:02.797Z,1.50
2018-09-26T12:12:30.801Z,1.57
2018-09-26T12:14:57.996Z,1.43
2018-09-26T12:17:25.083Z,1.50
2018-09-26T12:19:52.218Z,1.20
2018-09-26T12:22:19.844Z,1.60
2018-09-26T12:24:46.843Z,1.33
2018-09-26T12:27:13.827Z,1.57
2018-09-26T12:29:41.212Z,1.60
2018-09-26T12:32:08.309Z,1.33
2018-09-26T12:34:35.294Z,1.90
2018-09-26T12:37:02.449Z,1.60
2018-09-26T12:39:29.460Z,1.77
2018-09-26T12:41:56.443Z,1.47
2018-09-26T12:44:23.767Z,1.80
2018-09-26T12:46:50.869Z,1.60
2018-09-26T12:49:17.955Z,1.43
2018-09-26T12:51:45.246Z,1.63
2018-09-26T12:54:12.224Z,1.20
2018-09-26T12:56:39.204Z,1.40
2018-09-26T12:59:06.250Z,1.57
2018-09-26T13:01:33.291Z,1.53
2018-09-26T13:04:00.229Z,2.10
2018-09-26T13:06:27.288Z,2.00
2018-09-26T13:08:56.526Z,1.60
2018-09-26T13:11:23.673Z,1.60
2018-09-26T13:13:50.682Z,1.20
2018-09-26T13:16:17.833Z,1.90
2018-09-26T13:18:44.905Z,1.30
2018-09-26T13:21:11.906Z,1.70
2018-09-26T13:23:39.194Z,2.03
2018-09-26T13:26:06.527Z,1.90
2018-09-26T13:28:33.555Z,1.33
2018-09-26T13:31:00.585Z,1.63
2018-09-26T13:33:27.548Z,1.90
2018-09-26T13:35:54.925Z,2.17
2018-09-26T13:38:22.009Z,1.70
2018-09-26T13:40:48.949Z,1.83
2018-09-26T13:43:19.355Z,1.40
2018-09-26T13:45:46.449Z,1.80
2018-09-26T13:48:13.504Z,1.87
2018-09-26T13:50:40.533Z,2.00
2018-09-26T13:53:07.534Z,2.17
2018-09-26T13:55:34.596Z,1.60
2018-09-26T13:58:01.700Z,1.73
2018-09-26T14:00:28.778Z,1.47
2018-09-26T14:02:55.788Z,2.00
2018-09-26T14:05:22.838Z,1.80
2018-09-26T14:07:49.973Z,2.00
2018-09-26T14:10:16.995Z,1.77
2018-09-26T14:12:44.443Z,1.40
2018-09-26T14:15:11.457Z,2.10
2018-09-26T14:17:38.522Z,2.03
2018-09-26T14:20:05.912Z,3.37
2018-09-26T14:22:32.947Z,1.80
2018-09-26T14:25:00.016Z,2.10
2018-09-26T14:27:27.201Z,2.43
2018-09-26T14:29:54.257Z,1.50
2018-09-26T14:32:21.347Z,1.30
2018-09-26T14:34:48.396Z,1.63
2018-09-26T14:37:15.361Z,2.23
2018-09-26T14:39:42.384Z,1.53
2018-09-26T14:42:09.748Z,1.50
2018-09-26T14:44:36.759Z,1.50
2018-09-26T14:47:03.696Z,1.70
2018-09-26T14:49:30.881Z,1.60
2018-09-26T14:51:59.099Z,1.70
2018-09-26T14:54:26.067Z,1.60
2018-09-26T14:56:53.341Z,2.27
2018-09-26T14:59:20.302Z,1.80
2018-09-26T15:01:47.325Z,1.67
2018-09-26T15:04:14.625Z,1.90
2018-09-26T15:06:41.690Z,2.30
2018-09-26T15:09:08.629Z,1.93
2018-09-26T15:11:38.716Z,1.57
2018-09-26T15:14:06.099Z,2.03
2018-09-26T15:16:33.099Z,1.53
2018-09-26T15:19:00.404Z,1.87
2018-09-26T15:21:27.584Z,2.23
2018-09-26T15:23:54.616Z,1.83
2018-09-26T15:26:21.686Z,2.10
2018-09-26T15:28:50.919Z,1.90
2018-09-26T15:31:18.069Z,1.60
2018-09-26T15:33:45.111Z,1.57
2018-09-26T15:36:12.105Z,1.80
2018-09-26T15:38:39.166Z,1.67
2018-09-26T15:41:06.501Z,1.60
2018-09-26T15:43:33.477Z,3.70
2018-09-26T15:46:00.573Z,1.83
2018-09-26T15:48:27.795Z,2.27
2018-09-26T15:50:54.845Z,2.70
2018-09-26T15:53:21.931Z,2.53
2018-09-26T15:55:49.262Z,2.30
2018-09-26T15:58:16.386Z,1.83
2018-09-26T16:00:43.350Z,2.17
2018-09-26T16:03:10.369Z,2.00
2018-09-26T16:05:37.317Z,2.23
2018-09-26T16:08:06.172Z,1.70
2018-09-26T16:10:33.319Z,1.77
2018-09-26T16:13:00.324Z,2.53
2018-09-26T16:15:27.271Z,2.23
2018-09-26T16:17:54.539Z,2.57
2018-09-26T16:20:21.572Z,2.07
2018-09-26T16:22:48.948Z,4.63
2018-09-26T16:25:16.583Z,2.10
2018-09-26T16:27:43.644Z,2.60
2018-09-26T16:30:11.088Z,3.93
2018-09-26T16:32:38.207Z,1.83
2018-09-26T16:35:05.517Z,2.53
2018-09-26T16:37:32.524Z,2.80
2018-09-26T16:39:59.817Z,2.73
2018-09-26T16:42:26.851Z,2.60
2018-09-26T16:44:53.943Z,2.03
2018-09-26T16:47:21.437Z,1.80
2018-09-26T16:49:48.799Z,2.57
2018-09-26T16:52:15.947Z,3.50
2018-09-26T16:54:43.724Z,2.43
2018-09-26T16:57:10.700Z,3.40
2018-09-26T16:59:38.090Z,2.50
2018-09-26T17:02:06.204Z,2.70
2018-09-26T17:04:33.681Z,2.80
2018-09-26T17:07:00.701Z,7.67
2018-09-26T17:09:27.850Z,3.03
2018-09-26T17:11:54.820Z,2.80
2018-09-26T17:14:21.812Z,4.87
2018-09-26T17:16:49.110Z,3.67
2018-09-26T17:19:16.132Z,5.30
2018-09-26T17:21:43.183Z,2.33
2018-09-26T17:24:10.290Z,3.30
2018-09-26T17:26:37.442Z,6.40
2018-09-26T17:29:04.778Z,3.57
2018-09-26T17:31:31.772Z,5.13
2018-09-26T17:33:58.757Z,2.87
2018-09-26T17:36:25.825Z,2.80
2018-09-26T17:38:53.336Z,4.07
2018-09-26T17:41:20.558Z,2.40
2018-09-26T17:43:47.634Z,2.70
2018-09-26T17:46:14.772Z,2.93
2018-09-26T17:48:41.802Z,2.43
2018-09-26T17:51:08.886Z,2.73
2018-09-26T17:53:36.683Z,7.70
2018-09-26T17:56:03.688Z,2.87
2018-09-26T17:58:30.938Z,4.03
2018-09-26T18:00:58.492Z,2.63
2018-09-26T18:03:25.751Z,3.60
2018-09-26T18:05:52.789Z,3.40
2018-09-26T18:08:20.006Z,2.40
2018-09-26T18:10:47.176Z,2.70
2018-09-26T18:13:14.333Z,4.10
2018-09-26T18:15:41.513Z,6.90
2018-09-26T18:18:08.771Z,4.27
2018-09-26T18:20:35.908Z,3.23
2018-09-26T18:23:04.266Z,3.10
2018-09-26T18:25:31.348Z,2.77
2018-09-26T18:27:58.425Z,2.83
2018-09-26T18:30:25.710Z,2.87
2018-09-26T18:32:52.805Z,3.13
2018-09-26T18:35:19.891Z,3.13
2018-09-26T18:37:47.074Z,4.70
2018-09-26T18:40:14.262Z,4.60
2018-09-26T18:42:41.357Z,2.40
2018-09-26T18:45:08.646Z,3.10
2018-09-26T18:47:35.919Z,3.43
2018-09-26T18:50:03.110Z,2.97
2018-09-26T18:52:30.282Z,3.13
2018-09-26T18:54:57.465Z,2.20
2018-09-26T18:57:24.596Z,2.50
2018-09-26T18:59:51.730Z,2.47
2018-09-26T19:02:18.851Z,2.67
2018-09-26T19:04:46.162Z,3.47
2018-09-26T19:07:13.693Z,3.57
2018-09-26T19:09:40.810Z,2.50
2018-09-26T19:12:08.128Z,2.97
2018-09-26T19:14:35.356Z,2.90
2018-09-26T19:17:02.765Z,5.97
2018-09-26T19:22:09.126Z,2.37
2018-09-26T19:24:36.200Z,2.30
2018-09-26T19:27:03.357Z,2.17
2018-09-26T19:29:30.743Z,2.27
2018-09-26T19:31:57.806Z,2.70
2018-09-26T19:34:24.944Z,2.43
2018-09-26T19:36:52.079Z,3.73
2018-09-26T19:39:19.159Z,3.43
2018-09-26T19:41:46.223Z,3.17
2018-09-26T19:44:13.619Z,3.20
2018-09-26T19:46:40.808Z,2.03
2018-09-26T19:49:07.930Z,3.57
2018-09-26T19:51:35.489Z,2.23
2018-09-26T19:54:02.674Z,2.37
2018-09-26T19:56:29.799Z,2.20
2018-09-26T19:58:57.254Z,4.10
2018-09-26T20:01:24.558Z,2.40
2018-09-26T20:03:51.580Z,3.23
2018-09-26T20:06:18.638Z,2.10
2018-09-26T20:08:45.665Z,2.90
2018-09-26T20:11:12.847Z,2.30
2018-09-26T20:13:40.209Z,2.27
2018-09-26T20:16:07.464Z,2.77
2018-09-26T20:18:34.493Z,2.37
2018-09-26T20:21:01.874Z,2.10
2018-09-26T20:23:29.081Z,1.63
2018-09-26T20:25:56.259Z,2.03
2018-09-26T20:28:23.757Z,2.40
2018-09-26T20:30:50.878Z,2.43
2018-09-26T20:33:17.943Z,2.10
2018-09-26T20:35:45.090Z,2.30
2018-09-26T20:38:12.251Z,3.00
2018-09-26T20:40:39.432Z,2.97
2018-09-26T20:43:06.881Z,2.47
2018-09-26T20:45:33.983Z,1.87
2018-09-26T20:48:01.042Z,2.73
2018-09-26T20:50:28.241Z,2.70
2018-09-26T20:52:55.291Z,3.43
2018-09-26T20:55:22.392Z,2.70
2018-09-26T20:57:49.818Z,3.37
2018-09-26T21:00:16.884Z,2.40
2018-09-26T21:02:43.998Z,3.70
2018-09-26T21:05:11.360Z,2.13
2018-09-26T21:07:38.492Z,2.70
2018-09-26T21:10:05.670Z,3.03
2018-09-26T21:12:32.770Z,2.50
2018-09-26T21:15:00.105Z,2.20
2018-09-26T21:17:27.367Z,2.90
2018-09-26T21:19:54.792Z,2.43
2018-09-26T21:22:21.810Z,2.40
2018-09-26T21:24:48.907Z,2.00
2018-09-26T21:27:16.224Z,2.47
2018-09-26T21:29:43.354Z,2.20
2018-09-26T21:32:12.536Z,2.33
2018-09-26T21:34:39.686Z,2.67
2018-09-26T21:37:06.819Z,2.13
2018-09-26T21:39:34.002Z,2.20
2018-09-26T21:42:01.618Z,2.10
2018-09-26T21:44:28.604Z,2.37
2018-09-26T21:46:55.722Z,2.50
2018-09-26T21:49:22.939Z,2.10
2018-09-26T21:51:50.054Z,2.17
2018-09-26T21:54:17.167Z,2.60
2018-09-26T21:56:44.635Z,1.70
2018-09-26T21:59:11.782Z,2.00
2018-09-26T22:01:38.990Z,2.70
2018-09-26T22:04:06.810Z,2.57
2018-09-26T22:06:33.963Z,2.03
2018-09-26T22:09:01.142Z,2.10
2018-09-26T22:11:28.205Z,2.90
2018-09-26T22:13:55.254Z,1.80
2018-09-26T22:16:22.357Z,3.37
2018-09-26T22:18:49.776Z,2.43
2018-09-26T22:21:16.810Z,2.90
2018-09-26T22:23:43.932Z,2.13
2018-09-26T22:26:11.020Z,2.50
2018-09-26T22:28:38.207Z,2.53
2018-09-26T22:31:05.542Z,1.80
2018-09-26T22:33:32.959Z,2.20
2018-09-26T22:36:00.062Z,1.93
2018-09-26T22:38:27.203Z,2.30
2018-09-26T22:40:54.429Z,2.20
2018-09-26T22:43:21.569Z,2.00
2018-09-26T22:45:48.773Z,1.90
2018-09-26T22:48:15.879Z,2.30
2018-09-26T22:50:43.048Z,2.50
2018-09-26T22:53:10.096Z,2.40
2018-09-26T22:55:37.433Z,2.30
2018-09-26T22:58:04.987Z,1.80
2018-09-26T23:00:32.060Z,2.57
2018-09-26T23:02:59.492Z,2.20
2018-09-26T23:05:26.649Z,2.23
2018-09-26T23:07:53.884Z,2.80
2018-09-26T23:10:20.919Z,2.00
2018-09-26T23:12:49.031Z,2.07
2018-09-26T23:15:16.100Z,1.77
2018-09-26T23:17:43.536Z,1.90
2018-09-26T23:20:10.595Z,2.83
2018-09-26T23:22:37.718Z,2.47
2018-09-26T23:25:04.867Z,2.10
2018-09-26T23:27:31.905Z,1.80
2018-09-26T23:29:58.987Z,1.93
2018-09-26T23:32:26.454Z,2.23
2018-09-26T23:34:53.724Z,3.10
2018-09-26T23:37:20.838Z,2.40
2018-09-26T23:39:47.922Z,2.37
2018-09-26T23:42:15.029Z,2.10
2018-09-26T23:44:43.179Z,2.40
2018-09-26T23:47:10.337Z,2.20
2018-09-26T23:49:37.430Z,2.10
2018-09-26T23:52:04.550Z,2.50
2018-09-26T23:54:31.958Z,2.00
2018-09-26T23:56:59.219Z,2.40
2018-09-26T23:59:26.432Z,3.33
